Time;durP1;ratioP1;P1;durP2;ratioP2;P2;SDS_P1;SDS_P2;PMS_P1;PMS_P2;Temp;Humidity;BMP_temperature;BMP_pressure;BME280_temperature;BME280_humidity;BME280_pressure;Samples;Min_cycle;Max_cycle;Signal;HPM_P1;HPM_P2
2024/01/31 00:00:29;;;;;;;17.50;15.80;;;;;;;;;;5010811;28;20053;-56
2024/01/31 00:02:55;;;;;;;18.45;16.65;;;;;;;;;;5010213;28;20385;-58
2024/01/31 00:05:21;;;;;;;18.08;16.27;;;;;;;;;;5010871;28;20029;-57
2024/01/31 00:07:48;;;;;;;17.88;16.13;;;;;;;;;;5010762;28;20466;-57
2024/01/31 00:10:16;;;;;;;18.80;16.90;;;;;;;;;;5010898;28;20095;-58
2024/01/31 00:12:42;;;;;;;17.60;15.90;;;;;;;;;;5010274;28;20038;-55
2024/01/31 00:15:08;;;;;;;17.77;16.08;;;;;;;;;;5011040;28;20111;-57
2024/01/31 00:17:34;;;;;;;18.50;16.70;;;;;;;;;;5011185;28;20033;-57
2024/01/31 00:20:00;;;;;;;18.75;16.95;;;;;;;;;;5010614;28;20038;-56
2024/01/31 00:22:26;;;;;;;18.77;16.98;;;;;;;;;;5009786;28;20113;-57
2024/01/31 00:24:52;;;;;;;18.88;17.08;;;;;;;;;;5010719;28;20022;-53
2024/01/31 00:27:18;;;;;;;19.15;17.35;;;;;;;;;;4993194;28;20060;-57
2024/01/31 00:29:43;;;;;;;19.17;17.38;;;;;;;;;;5010645;28;20025;-57
2024/01/31 00:32:10;;;;;;;18.95;17.15;;;;;;;;;;5009900;28;20037;-58
2024/01/31 00:34:35;;;;;;;18.58;16.77;;;;;;;;;;5010559;28;20395;-57
2024/01/31 00:37:01;;;;;;;18.98;17.17;;;;;;;;;;5010335;28;20022;-56
2024/01/31 00:39:31;;;;;;;17.92;16.20;;;;;;;;;;5010524;28;20097;-56
2024/01/31 00:41:58;;;;;;;18.17;16.38;;;;;;;;;;5009320;28;20025;-60
2024/01/31 00:44:24;;;;;;;17.85;16.15;;;;;;;;;;5010540;28;20030;-55
2024/01/31 00:46:50;;;;;;;18.50;16.70;;;;;;;;;;5010619;28;20033;-57
2024/01/31 00:49:16;;;;;;;18.65;16.85;;;;;;;;;;5010265;28;20030;-57
2024/01/31 00:51:45;;;;;;;18.80;17.00;;;;;;;;;;5009956;28;20045;-55
2024/01/31 00:54:12;;;;;;;18.73;16.92;;;;;;;;;;5010440;28;20029;-57
2024/01/31 00:56:38;;;;;;;18.58;16.77;;;;;;;;;;5010633;28;20022;-57
2024/01/31 00:59:04;;;;;;;18.30;16.50;;;;;;;;;;5010360;28;20084;-56
2024/01/31 01:01:30;;;;;;;19.42;17.42;;;;;;;;;;5009139;28;20124;-59
2024/01/31 01:03:56;;;;;;;18.10;16.30;;;;;;;;;;4992196;28;20058;-57
2024/01/31 01:06:22;;;;;;;17.77;16.08;;;;;;;;;;5009951;28;20033;-57
2024/01/31 01:08:48;;;;;;;17.75;16.05;;;;;;;;;;5009724;28;20396;-55
2024/01/31 01:11:14;;;;;;;17.08;15.38;;;;;;;;;;5009096;28;20026;-56
2024/01/31 01:13:40;;;;;;;17.50;15.80;;;;;;;;;;5009048;28;20022;-56
2024/01/31 01:16:06;;;;;;;17.15;15.45;;;;;;;;;;4992183;28;20018;-57
2024/01/31 01:18:32;;;;;;;17.17;15.48;;;;;;;;;;4992190;28;20306;-54
2024/01/31 01:20:58;;;;;;;17.00;15.30;;;;;;;;;;5009426;28;20029;-56
2024/01/31 01:23:24;;;;;;;17.25;15.55;;;;;;;;;;5008966;28;20025;-55
2024/01/31 01:25:50;;;;;;;16.75;15.05;;;;;;;;;;5009369;28;20053;-58
2024/01/31 01:28:16;;;;;;;16.70;15.00;;;;;;;;;;5009697;28;20062;-57
2024/01/31 01:30:42;;;;;;;16.52;14.82;;;;;;;;;;4991691;28;20369;-51
2024/01/31 01:33:08;;;;;;;15.93;14.23;;;;;;;;;;5008580;28;20030;-56
2024/01/31 01:35:34;;;;;;;15.75;14.05;;;;;;;;;;5009030;28;20054;-57
2024/01/31 01:38:00;;;;;;;15.90;14.20;;;;;;;;;;5009315;28;20022;-55
2024/01/31 01:40:26;;;;;;;15.57;13.88;;;;;;;;;;5009333;28;20022;-56
2024/01/31 01:42:52;;;;;;;15.52;13.82;;;;;;;;;;5008497;28;20534;-57
2024/01/31 01:45:18;;;;;;;15.48;13.77;;;;;;;;;;5009213;28;20088;-56
2024/01/31 01:47:48;;;;;;;15.95;14.25;;;;;;;;;;5009256;28;20604;-57
2024/01/31 01:50:14;;;;;;;15.25;13.55;;;;;;;;;;5009520;28;20041;-57
2024/01/31 01:52:40;;;;;;;15.23;13.43;;;;;;;;;;5007606;28;20392;-55
2024/01/31 01:55:06;;;;;;;15.30;13.45;;;;;;;;;;5009187;28;20049;-55
2024/01/31 01:57:33;;;;;;;15.10;13.15;;;;;;;;;;5009220;28;20048;-56
2024/01/31 01:59:59;;;;;;;15.13;13.20;;;;;;;;;;5008211;28;20022;-54
2024/01/31 02:02:26;;;;;;;15.20;13.27;;;;;;;;;;5008339;28;20022;-56
2024/01/31 02:04:52;;;;;;;15.10;13.00;;;;;;;;;;5009160;28;20434;-58
2024/01/31 02:07:25;;;;;;;16.10;14.07;;;;;;;;;;5009246;28;20069;-56
2024/01/31 02:09:52;;;;;;;15.10;12.95;;;;;;;;;;5009219;28;20076;-56
2024/01/31 02:12:18;;;;;;;15.43;13.40;;;;;;;;;;5008360;28;20050;-57
2024/01/31 02:14:47;;;;;;;15.10;13.02;;;;;;;;;;5009237;28;20063;-55
2024/01/31 02:17:13;;;;;;;15.00;12.70;;;;;;;;;;5008973;28;20538;-55
2024/01/31 02:19:39;;;;;;;14.90;12.52;;;;;;;;;;5009057;28;20088;-55
2024/01/31 02:22:07;;;;;;;14.90;12.60;;;;;;;;;;5008165;28;20120;-57
2024/01/31 02:24:33;;;;;;;26.55;13.50;;;;;;;;;;5008810;28;20162;-57
2024/01/31 02:26:59;;;;;;;14.70;11.85;;;;;;;;;;5009091;28;20474;-56
2024/01/31 02:29:25;;;;;;;14.50;11.30;;;;;;;;;;5008833;28;20038;-56
2024/01/31 02:31:51;;;;;;;14.50;11.30;;;;;;;;;;5008198;28;20033;-59
2024/01/31 02:34:18;;;;;;;14.50;11.20;;;;;;;;;;5008587;28;20107;-58
2024/01/31 02:36:44;;;;;;;14.43;11.00;;;;;;;;;;5009052;28;20021;-55
2024/01/31 02:39:10;;;;;;;14.20;10.68;;;;;;;;;;5008667;28;20026;-58
2024/01/31 02:41:36;;;;;;;15.27;11.50;;;;;;;;;;4990240;28;20144;-56
2024/01/31 02:44:02;;;;;;;14.40;11.15;;;;;;;;;;4991144;28;20395;-57
2024/01/31 02:46:28;;;;;;;14.25;10.65;;;;;;;;;;5008704;28;20143;-56
2024/01/31 02:48:54;;;;;;;14.30;10.88;;;;;;;;;;4991168;28;20029;-59
2024/01/31 02:51:20;;;;;;;14.60;10.93;;;;;;;;;;5007912;28;20488;-56
2024/01/31 02:53:46;;;;;;;14.25;10.63;;;;;;;;;;5008657;28;20113;-58
2024/01/31 02:56:12;;;;;;;14.38;10.75;;;;;;;;;;4991052;28;20018;-57
2024/01/31 02:58:38;;;;;;;14.40;10.98;;;;;;;;;;4991096;28;20408;-59
2024/01/31 03:01:07;;;;;;;14.30;10.52;;;;;;;;;;5008212;28;20074;-59
2024/01/31 03:03:33;;;;;;;14.40;10.85;;;;;;;;;;5008433;28;20106;-58
2024/01/31 03:05:59;;;;;;;14.60;11.43;;;;;;;;;;5011853;28;20034;-58
2024/01/31 03:08:25;;;;;;;14.50;11.15;;;;;;;;;;5011937;28;20397;-57
2024/01/31 03:10:51;;;;;;;14.50;11.10;;;;;;;;;;4994099;28;20033;-54
2024/01/31 03:13:17;;;;;;;14.50;11.10;;;;;;;;;;5011223;28;20124;-58
2024/01/31 03:15:43;;;;;;;14.40;11.00;;;;;;;;;;4994073;28;20156;-58
2024/01/31 03:18:09;;;;;;;14.40;10.90;;;;;;;;;;4994119;28;20026;-55
2024/01/31 03:20:35;;;;;;;14.35;10.77;;;;;;;;;;5011815;28;20163;-60
2024/01/31 03:23:01;;;;;;;14.45;11.02;;;;;;;;;;5011175;28;20026;-55
2024/01/31 03:25:28;;;;;;;14.27;10.45;;;;;;;;;;5011705;28;20033;-56
2024/01/31 03:27:54;;;;;;;14.30;10.60;;;;;;;;;;4994021;28;20026;-55
2024/01/31 03:30:20;;;;;;;14.25;10.50;;;;;;;;;;5011553;28;20026;-57
2024/01/31 03:32:46;;;;;;;14.30;10.65;;;;;;;;;;4993009;28;20414;-57
2024/01/31 03:35:12;;;;;;;14.30;10.55;;;;;;;;;;5011392;28;20045;-54
2024/01/31 03:37:38;;;;;;;14.40;10.90;;;;;;;;;;5011351;28;20018;-56
2024/01/31 03:40:05;;;;;;;14.23;10.43;;;;;;;;;;5011296;28;20052;-55
2024/01/31 03:42:31;;;;;;;14.20;10.40;;;;;;;;;;5010548;28;20424;-54
2024/01/31 03:44:57;;;;;;;14.20;10.50;;;;;;;;;;5011078;28;20101;-56
2024/01/31 03:47:23;;;;;;;14.75;10.30;;;;;;;;;;4993536;28;20040;-57
2024/01/31 03:49:51;;;;;;;14.07;10.07;;;;;;;;;;5011109;28;20032;-58
2024/01/31 03:52:17;;;;;;;14.10;10.02;;;;;;;;;;5010392;28;20098;-57
2024/01/31 03:54:43;;;;;;;14.23;10.45;;;;;;;;;;5010887;28;20018;-57
2024/01/31 03:57:09;;;;;;;14.00;9.88;;;;;;;;;;4993266;28;20040;-57
2024/01/31 03:59:35;;;;;;;14.02;10.02;;;;;;;;;;4993453;28;20113;-57
2024/01/31 04:02:01;;;;;;;14.02;10.00;;;;;;;;;;5010214;28;20029;-56
2024/01/31 04:04:27;;;;;;;14.27;10.50;;;;;;;;;;5010687;28;20640;-57
2024/01/31 04:06:53;;;;;;;14.07;9.93;;;;;;;;;;5010951;28;20033;-60
2024/01/31 04:09:19;;;;;;;13.98;9.75;;;;;;;;;;5010833;28;20026;-57
2024/01/31 04:11:45;;;;;;;13.95;9.73;;;;;;;;;;4992338;28;20100;-56
2024/01/31 04:14:11;;;;;;;14.07;9.98;;;;;;;;;;5010464;28;20034;-57
2024/01/31 04:16:37;;;;;;;14.07;10.07;;;;;;;;;;5009757;28;20032;-57
2024/01/31 04:19:03;;;;;;;14.05;10.13;;;;;;;;;;5010551;28;20532;-57
2024/01/31 04:21:29;;;;;;;14.10;10.10;;;;;;;;;;5009865;28;20049;-57
2024/01/31 04:23:55;;;;;;;14.20;10.35;;;;;;;;;;5010506;28;20492;-57
2024/01/31 04:26:21;;;;;;;15.02;10.80;;;;;;;;;;5010551;28;20022;-57
2024/01/31 04:28:47;;;;;;;13.98;9.88;;;;;;;;;;5010564;28;20128;-58
2024/01/31 04:31:16;;;;;;;14.00;9.90;;;;;;;;;;5010370;28;20371;-59
2024/01/31 04:33:43;;;;;;;13.95;9.82;;;;;;;;;;4992051;28;20125;-56
2024/01/31 04:36:09;;;;;;;14.00;9.80;;;;;;;;;;5010352;28;20030;-59
2024/01/31 04:38:35;;;;;;;13.90;9.80;;;;;;;;;;4992986;28;20021;-57
2024/01/31 04:41:01;;;;;;;13.98;9.70;;;;;;;;;;4992645;28;20084;-59
2024/01/31 04:43:27;;;;;;;13.90;9.52;;;;;;;;;;4992028;28;20026;-57
2024/01/31 04:45:54;;;;;;;13.98;9.75;;;;;;;;;;5009982;28;20097;-56
2024/01/31 04:48:20;;;;;;;14.07;10.00;;;;;;;;;;5009764;28;20030;-55
2024/01/31 04:50:46;;;;;;;13.95;9.90;;;;;;;;;;5009616;28;20117;-56
2024/01/31 04:53:12;;;;;;;13.93;9.63;;;;;;;;;;5009107;28;20622;-56
2024/01/31 04:55:38;;;;;;;13.98;9.75;;;;;;;;;;5010221;28;20588;-57
2024/01/31 04:58:04;;;;;;;14.10;10.10;;;;;;;;;;4992354;28;20477;-54
2024/01/31 05:00:30;;;;;;;14.00;9.85;;;;;;;;;;5009703;28;20022;-59
2024/01/31 05:02:56;;;;;;;13.98;9.82;;;;;;;;;;5009104;28;20061;-56
2024/01/31 05:05:22;;;;;;;14.00;9.88;;;;;;;;;;5009683;28;20460;-58
2024/01/31 05:07:48;;;;;;;14.02;9.98;;;;;;;;;;5009712;28;20074;-58
2024/01/31 05:10:14;;;;;;;14.18;10.18;;;;;;;;;;5009735;28;20033;-54
2024/01/31 05:12:40;;;;;;;14.35;10.52;;;;;;;;;;5008551;28;20025;-57
2024/01/31 05:15:06;;;;;;;14.13;10.15;;;;;;;;;;4991669;28;20025;-58
2024/01/31 05:17:32;;;;;;;14.15;10.30;;;;;;;;;;4991632;28;20022;-57
2024/01/31 05:19:58;;;;;;;14.10;10.05;;;;;;;;;;5009204;28;20361;-56
2024/01/31 05:22:25;;;;;;;14.10;10.00;;;;;;;;;;4991077;28;20582;-55
2024/01/31 05:24:51;;;;;;;14.25;10.32;;;;;;;;;;5009106;28;20017;-56
2024/01/31 05:27:17;;;;;;;13.98;9.90;;;;;;;;;;5009242;28;20503;-56
2024/01/31 05:29:43;;;;;;;14.25;10.52;;;;;;;;;;4991561;28;20037;-56
2024/01/31 05:32:09;;;;;;;14.60;11.32;;;;;;;;;;5008335;28;20101;-57
2024/01/31 05:34:35;;;;;;;14.30;10.63;;;;;;;;;;5009553;28;20030;-56
2024/01/31 05:37:01;;;;;;;14.27;10.55;;;;;;;;;;5009270;28;20045;-54
2024/01/31 05:39:27;;;;;;;14.30;10.70;;;;;;;;;;5009117;28;20578;-58
2024/01/31 05:41:53;;;;;;;14.40;11.00;;;;;;;;;;4990787;28;20077;-56
2024/01/31 05:44:20;;;;;;;14.43;11.00;;;;;;;;;;5009034;28;20529;-58
2024/01/31 05:46:46;;;;;;;14.35;10.75;;;;;;;;;;5009181;28;20109;-57
2024/01/31 05:49:13;;;;;;;14.60;11.45;;;;;;;;;;4991684;28;20204;-60
2024/01/31 05:51:39;;;;;;;14.15;10.35;;;;;;;;;;5008423;28;20113;-57
2024/01/31 05:54:05;;;;;;;14.30;10.90;;;;;;;;;;5009035;28;20109;-56
2024/01/31 05:56:31;;;;;;;14.30;10.68;;;;;;;;;;5009620;28;20391;-57
2024/01/31 05:58:57;;;;;;;14.30;10.80;;;;;;;;;;5008753;28;20025;-56
2024/01/31 06:01:24;;;;;;;14.23;10.45;;;;;;;;;;5007956;28;20104;-56
2024/01/31 06:03:50;;;;;;;14.15;10.30;;;;;;;;;;5008442;28;20108;-57
2024/01/31 06:06:16;;;;;;;14.15;10.20;;;;;;;;;;5008804;28;20041;-59
2024/01/31 06:08:42;;;;;;;14.30;10.80;;;;;;;;;;5008408;28;20072;-59
2024/01/31 06:11:08;;;;;;;14.20;10.45;;;;;;;;;;5007957;28;20054;-57
2024/01/31 06:13:35;;;;;;;14.55;11.30;;;;;;;;;;4989991;28;20451;-58
2024/01/31 06:16:02;;;;;;;14.38;10.85;;;;;;;;;;5007803;28;20018;-61
2024/01/31 06:18:34;;;;;;;14.40;10.90;;;;;;;;;;4990695;28;20026;-59
2024/01/31 06:21:00;;;;;;;14.23;10.57;;;;;;;;;;5006941;28;20586;-57
2024/01/31 06:23:26;;;;;;;14.23;10.57;;;;;;;;;;4987928;28;20026;-57
2024/01/31 06:25:52;;;;;;;14.30;10.82;;;;;;;;;;5007885;28;20133;-57
2024/01/31 06:28:18;;;;;;;14.27;10.60;;;;;;;;;;4989559;28;20022;-58
2024/01/31 06:30:45;;;;;;;14.40;10.93;;;;;;;;;;5007566;28;20088;-56
2024/01/31 06:33:11;;;;;;;14.23;10.65;;;;;;;;;;5007261;28;20065;-59
2024/01/31 06:35:38;;;;;;;14.18;10.38;;;;;;;;;;5008368;28;20295;-52
2024/01/31 06:38:05;;;;;;;14.20;10.30;;;;;;;;;;5008107;28;20064;-58
2024/01/31 06:40:31;;;;;;;14.18;10.45;;;;;;;;;;5011784;28;20022;-59
2024/01/31 06:42:57;;;;;;;14.23;10.55;;;;;;;;;;4993149;28;20084;-58
2024/01/31 06:45:26;;;;;;;14.20;10.40;;;;;;;;;;5011854;28;20476;-59
2024/01/31 06:47:52;;;;;;;14.07;10.10;;;;;;;;;;5011587;28;20184;-58
2024/01/31 06:50:18;;;;;;;14.02;9.90;;;;;;;;;;5011805;28;20033;-59
2024/01/31 06:52:45;;;;;;;14.00;9.98;;;;;;;;;;4993521;28;20026;-58
2024/01/31 06:55:11;;;;;;;14.18;10.40;;;;;;;;;;5012085;28;20026;-57
2024/01/31 06:57:38;;;;;;;14.18;10.40;;;;;;;;;;5011863;28;20118;-58
2024/01/31 07:00:05;;;;;;;14.20;10.35;;;;;;;;;;5011762;28;20022;-57
2024/01/31 07:02:31;;;;;;;14.15;10.15;;;;;;;;;;4993171;28;20026;-58
2024/01/31 07:04:57;;;;;;;14.23;10.50;;;;;;;;;;5011594;28;20040;-57
2024/01/31 07:07:23;;;;;;;14.15;10.18;;;;;;;;;;5011523;28;20029;-57
2024/01/31 07:09:49;;;;;;;14.10;10.18;;;;;;;;;;5011618;28;20034;-58
2024/01/31 07:12:15;;;;;;;14.00;10.02;;;;;;;;;;5010758;28;20026;-59
2024/01/31 07:14:42;;;;;;;14.07;10.07;;;;;;;;;;5011431;28;20026;-57
2024/01/31 07:17:08;;;;;;;14.00;9.93;;;;;;;;;;4993713;28;20126;-60
2024/01/31 07:19:34;;;;;;;13.98;9.75;;;;;;;;;;5011240;28;20022;-59
2024/01/31 07:22:00;;;;;;;14.00;9.95;;;;;;;;;;5010469;28;20037;-58
2024/01/31 07:24:27;;;;;;;14.00;9.75;;;;;;;;;;4993290;28;20396;-54
2024/01/31 07:26:53;;;;;;;14.00;9.88;;;;;;;;;;5011035;28;20037;-57
2024/01/31 07:29:19;;;;;;;13.95;9.77;;;;;;;;;;5011036;28;20112;-59
2024/01/31 07:31:45;;;;;;;14.00;9.93;;;;;;;;;;5010088;28;20128;-53
2024/01/31 07:34:11;;;;;;;13.98;9.70;;;;;;;;;;5010813;28;20037;-54
2024/01/31 07:36:37;;;;;;;13.93;9.73;;;;;;;;;;5011061;28;20052;-61
2024/01/31 07:39:04;;;;;;;13.93;9.82;;;;;;;;;;5011217;28;20292;-58
2024/01/31 07:41:30;;;;;;;13.77;9.52;;;;;;;;;;5010621;28;20499;-59
2024/01/31 07:43:56;;;;;;;13.88;9.50;;;;;;;;;;5012204;28;20080;-60
2024/01/31 07:46:23;;;;;;;13.85;9.50;;;;;;;;;;5016148;28;20030;-61
2024/01/31 07:48:49;;;;;;;13.90;9.57;;;;;;;;;;5019199;28;20034;-59
2024/01/31 07:51:15;;;;;;;13.90;9.52;;;;;;;;;;5011076;28;20017;-59
2024/01/31 07:53:41;;;;;;;13.73;9.23;;;;;;;;;;5011421;28;20053;-59
2024/01/31 07:56:07;;;;;;;13.90;9.60;;;;;;;;;;5011519;28;20438;-57
2024/01/31 07:58:34;;;;;;;13.82;9.40;;;;;;;;;;5011073;28;20017;-59
2024/01/31 08:01:00;;;;;;;13.88;9.48;;;;;;;;;;5009467;28;20408;-59
2024/01/31 08:03:26;;;;;;;13.75;9.18;;;;;;;;;;5009639;28;20036;-59
2024/01/31 08:05:52;;;;;;;13.68;8.93;;;;;;;;;;5010471;28;20034;-58
2024/01/31 08:08:18;;;;;;;13.77;9.18;;;;;;;;;;5010036;28;20030;-56
2024/01/31 08:10:44;;;;;;;13.70;9.10;;;;;;;;;;5010179;28;20036;-58
2024/01/31 08:13:10;;;;;;;13.90;8.90;;;;;;;;;;5009943;28;20033;-58
2024/01/31 08:15:36;;;;;;;13.65;8.88;;;;;;;;;;5010593;28;20121;-57
2024/01/31 08:18:02;;;;;;;13.60;8.80;;;;;;;;;;5010457;28;20018;-57
2024/01/31 08:20:28;;;;;;;13.52;8.63;;;;;;;;;;5010570;28;20105;-58
2024/01/31 08:22:54;;;;;;;13.55;8.60;;;;;;;;;;5009803;28;20049;-56
2024/01/31 08:25:20;;;;;;;13.70;8.90;;;;;;;;;;5010877;28;20046;-59
2024/01/31 08:27:48;;;;;;;13.65;9.20;;;;;;;;;;5010720;28;20538;-61
2024/01/31 08:30:15;;;;;;;13.48;8.40;;;;;;;;;;5010554;28;20032;-58
2024/01/31 08:32:41;;;;;;;13.65;8.90;;;;;;;;;;5009453;28;20396;-57
2024/01/31 08:35:08;;;;;;;13.50;8.50;;;;;;;;;;5010406;28;20032;-60
2024/01/31 08:37:34;;;;;;;13.60;8.80;;;;;;;;;;5010257;28;20377;-59
2024/01/31 08:40:00;;;;;;;13.63;8.80;;;;;;;;;;4992542;28;20080;-58
2024/01/31 08:42:28;;;;;;;13.80;9.27;;;;;;;;;;5009410;28;20017;-58
2024/01/31 08:44:55;;;;;;;13.60;8.85;;;;;;;;;;5009596;28;20488;-58
2024/01/31 08:47:21;;;;;;;13.60;8.70;;;;;;;;;;5009982;28;20484;-59
2024/01/31 08:49:48;;;;;;;13.70;9.02;;;;;;;;;;5010009;28;20037;-56
2024/01/31 08:52:14;;;;;;;13.63;8.95;;;;;;;;;;4991837;28;20084;-59
2024/01/31 08:54:40;;;;;;;13.77;9.20;;;;;;;;;;5007135;28;20038;-59
2024/01/31 08:57:06;;;;;;;13.80;9.30;;;;;;;;;;5009744;28;20032;-58
2024/01/31 08:59:32;;;;;;;13.65;8.93;;;;;;;;;;5009329;28;20022;-59
2024/01/31 09:01:58;;;;;;;13.45;8.40;;;;;;;;;;5007415;28;20025;-59
2024/01/31 09:04:24;;;;;;;13.68;8.90;;;;;;;;;;5009365;28;20034;-59
2024/01/31 09:06:50;;;;;;;13.70;8.85;;;;;;;;;;5009461;28;20038;-59
2024/01/31 09:09:16;;;;;;;13.60;8.80;;;;;;;;;;5009479;28;20148;-56
2024/01/31 09:11:42;;;;;;;13.38;8.52;;;;;;;;;;5008575;28;20083;-59
2024/01/31 09:14:08;;;;;;;13.65;8.73;;;;;;;;;;5009593;28;20454;-60
2024/01/31 09:16:34;;;;;;;13.75;8.98;;;;;;;;;;5009573;28;20054;-61
2024/01/31 09:19:01;;;;;;;13.75;9.13;;;;;;;;;;5009590;28;20400;-60
2024/01/31 09:21:27;;;;;;;13.70;9.13;;;;;;;;;;5008672;28;20506;-56
2024/01/31 09:23:56;;;;;;;13.65;8.95;;;;;;;;;;5009292;28;20625;-58
2024/01/31 09:26:23;;;;;;;13.68;9.07;;;;;;;;;;5009383;28;20029;-56
2024/01/31 09:28:50;;;;;;;13.73;9.10;;;;;;;;;;5009742;28;20105;-54
2024/01/31 09:31:22;;;;;;;13.68;8.98;;;;;;;;;;5008751;28;20032;-57
2024/01/31 09:33:48;;;;;;;13.73;9.00;;;;;;;;;;5008546;28;20029;-58
2024/01/31 09:36:14;;;;;;;13.63;8.90;;;;;;;;;;5008831;28;20080;-57
2024/01/31 09:38:40;;;;;;;13.77;9.15;;;;;;;;;;5008940;28;20026;-57
2024/01/31 09:41:06;;;;;;;13.68;8.90;;;;;;;;;;5008678;28;20025;-57
2024/01/31 09:43:32;;;;;;;13.85;9.30;;;;;;;;;;5008295;28;20057;-55
2024/01/31 09:45:59;;;;;;;13.82;9.40;;;;;;;;;;5008860;28;20114;-57
2024/01/31 09:48:26;;;;;;;13.80;9.07;;;;;;;;;;5008545;28;20515;-57
2024/01/31 09:50:52;;;;;;;13.85;9.45;;;;;;;;;;5008281;28;20065;-55
2024/01/31 09:53:19;;;;;;;14.05;9.07;;;;;;;;;;5007810;28;20052;-53
2024/01/31 09:55:46;;;;;;;13.75;9.10;;;;;;;;;;5008578;28;20045;-55
2024/01/31 09:58:12;;;;;;;13.73;9.05;;;;;;;;;;4990916;28;20592;-57
2024/01/31 10:00:38;;;;;;;13.48;8.30;;;;;;;;;;5007856;28;20022;-56
2024/01/31 10:03:04;;;;;;;13.68;8.90;;;;;;;;;;5007847;28;20129;-56
2024/01/31 10:05:30;;;;;;;13.77;9.30;;;;;;;;;;5008664;28;20493;-57
2024/01/31 10:08:03;;;;;;;13.77;9.25;;;;;;;;;;5008647;28;20122;-55
2024/01/31 10:10:29;;;;;;;13.80;9.18;;;;;;;;;;5008515;28;20512;-56
2024/01/31 10:12:55;;;;;;;13.90;9.40;;;;;;;;;;5007954;28;20034;-54
2024/01/31 10:15:21;;;;;;;13.70;9.10;;;;;;;;;;5012558;28;20373;-57
2024/01/31 10:17:47;;;;;;;13.85;9.38;;;;;;;;;;4995165;28;20514;-56
2024/01/31 10:20:16;;;;;;;13.73;9.10;;;;;;;;;;5013393;28;20400;-53
2024/01/31 10:22:45;;;;;;;13.63;8.77;;;;;;;;;;5011791;28;20029;-56
2024/01/31 10:25:16;;;;;;;13.75;9.02;;;;;;;;;;5012768;28;20121;-57
2024/01/31 10:27:43;;;;;;;13.57;8.65;;;;;;;;;;5012399;28;20034;-54
2024/01/31 10:30:10;;;;;;;13.70;8.90;;;;;;;;;;5012384;28;20338;-56
2024/01/31 10:32:38;;;;;;;13.48;8.48;;;;;;;;;;5011725;28;20117;-56
2024/01/31 10:35:05;;;;;;;13.77;9.10;;;;;;;;;;4994805;28;20372;-53
2024/01/31 10:37:31;;;;;;;13.43;8.45;;;;;;;;;;5012686;28;20092;-56
2024/01/31 10:39:59;;;;;;;13.70;8.95;;;;;;;;;;5012401;28;20029;-56
2024/01/31 10:42:26;;;;;;;13.75;9.13;;;;;;;;;;5011368;28;20029;-56
2024/01/31 10:44:52;;;;;;;13.65;8.90;;;;;;;;;;5011819;28;20022;-56
2024/01/31 10:47:18;;;;;;;13.60;8.88;;;;;;;;;;5011774;28;20463;-57
2024/01/31 10:49:44;;;;;;;13.68;8.93;;;;;;;;;;5011859;28;20065;-56
2024/01/31 10:52:11;;;;;;;13.50;8.60;;;;;;;;;;5010910;28;20388;-55
2024/01/31 10:54:39;;;;;;;13.60;8.70;;;;;;;;;;5011475;28;20518;-55
2024/01/31 10:57:05;;;;;;;13.70;9.00;;;;;;;;;;5011649;28;20034;-53
2024/01/31 10:59:37;;;;;;;13.60;8.75;;;;;;;;;;5011744;28;20022;-51
2024/01/31 11:02:04;;;;;;;13.68;8.90;;;;;;;;;;5010375;28;20018;-54
2024/01/31 11:04:30;;;;;;;13.63;8.80;;;;;;;;;;5011368;28;20045;-55
2024/01/31 11:07:00;;;;;;;13.55;8.52;;;;;;;;;;5011376;28;20033;-53
2024/01/31 11:09:28;;;;;;;13.52;8.40;;;;;;;;;;5011366;28;20109;-54
2024/01/31 11:12:10;;;;;;;13.40;8.37;;;;;;;;;;4993262;28;20588;-54
2024/01/31 11:14:36;;;;;;;13.13;7.80;;;;;;;;;;5011310;28;20396;-53
2024/01/31 11:17:26;;;;;;;13.23;7.90;;;;;;;;;;5011134;28;20026;-56
2024/01/31 11:19:53;;;;;;;13.38;8.07;;;;;;;;;;5011014;28;20109;-56
2024/01/31 11:22:20;;;;;;;13.43;8.10;;;;;;;;;;5010405;28;20026;-50
2024/01/31 11:24:47;;;;;;;13.50;8.27;;;;;;;;;;5011425;28;20364;-55
2024/01/31 11:27:16;;;;;;;13.05;7.78;;;;;;;;;;5011446;28;20494;-55
2024/01/31 11:29:44;;;;;;;13.27;7.97;;;;;;;;;;5011425;28;20106;-51
2024/01/31 11:32:10;;;;;;;13.33;7.97;;;;;;;;;;5010617;28;20102;-53
2024/01/31 11:34:37;;;;;;;13.25;7.93;;;;;;;;;;5011433;28;20088;-52
2024/01/31 11:37:03;;;;;;;13.90;8.50;;;;;;;;;;5010956;28;20100;-54
2024/01/31 11:39:29;;;;;;;13.48;8.32;;;;;;;;;;5010990;28;20030;-53
2024/01/31 11:41:55;;;;;;;13.25;7.90;;;;;;;;;;5010661;28;20048;-54
2024/01/31 11:44:21;;;;;;;13.55;8.68;;;;;;;;;;5010293;28;20037;-58
2024/01/31 11:46:48;;;;;;;13.52;8.75;;;;;;;;;;5010894;28;20018;-55
2024/01/31 11:49:14;;;;;;;13.40;8.07;;;;;;;;;;5011009;28;20018;-56
2024/01/31 11:51:40;;;;;;;13.30;7.88;;;;;;;;;;5009984;28;20129;-54
2024/01/31 11:54:06;;;;;;;13.48;8.32;;;;;;;;;;5010467;28;20044;-56
2024/01/31 11:56:32;;;;;;;13.27;7.80;;;;;;;;;;5010338;28;20025;-58
2024/01/31 11:58:59;;;;;;;13.50;8.32;;;;;;;;;;5010368;28;20492;-55
2024/01/31 12:01:26;;;;;;;13.52;8.63;;;;;;;;;;4991264;28;20022;-58
2024/01/31 12:03:52;;;;;;;13.43;8.27;;;;;;;;;;5010206;28;20399;-55
2024/01/31 12:06:18;;;;;;;13.32;8.23;;;;;;;;;;5010408;28;20438;-58
2024/01/31 12:08:48;;;;;;;13.57;8.48;;;;;;;;;;5010334;28;20066;-54
2024/01/31 12:11:15;;;;;;;13.45;8.48;;;;;;;;;;5009702;28;20026;-57
2024/01/31 12:13:41;;;;;;;13.60;8.90;;;;;;;;;;5009484;28;20040;-55
2024/01/31 12:16:11;;;;;;;13.35;8.07;;;;;;;;;;5010359;28;20021;-55
2024/01/31 12:18:37;;;;;;;13.55;8.65;;;;;;;;;;5010318;28;20103;-58
2024/01/31 12:21:09;;;;;;;13.35;8.10;;;;;;;;;;5009973;28;20052;-56
2024/01/31 12:23:35;;;;;;;13.48;8.30;;;;;;;;;;5009843;28;20105;-56
2024/01/31 12:26:02;;;;;;;13.65;8.70;;;;;;;;;;5010290;28;20559;-53
2024/01/31 12:28:28;;;;;;;13.52;8.55;;;;;;;;;;5010035;28;20165;-54
2024/01/31 12:30:54;;;;;;;13.48;8.38;;;;;;;;;;5009678;28;20499;-53
2024/01/31 12:33:21;;;;;;;13.45;8.38;;;;;;;;;;5008892;28;20030;-53
2024/01/31 12:35:47;;;;;;;13.43;8.30;;;;;;;;;;5009690;28;20057;-53
2024/01/31 12:38:13;;;;;;;13.20;7.95;;;;;;;;;;5009374;28;20186;-52
2024/01/31 12:40:39;;;;;;;13.48;8.43;;;;;;;;;;5009549;28;20484;-52
2024/01/31 12:43:05;;;;;;;13.50;8.48;;;;;;;;;;5008941;28;20033;-53
2024/01/31 12:45:33;;;;;;;13.38;8.20;;;;;;;;;;5009620;28;20492;-50
2024/01/31 12:47:59;;;;;;;13.38;8.30;;;;;;;;;;5009720;28;20036;-55
2024/01/31 12:50:25;;;;;;;13.32;8.18;;;;;;;;;;5009682;28;20041;-55
2024/01/31 12:52:52;;;;;;;13.55;8.68;;;;;;;;;;5008985;28;20032;-51
2024/01/31 12:55:18;;;;;;;16.63;10.00;;;;;;;;;;5009153;28;20014;-54
2024/01/31 12:57:44;;;;;;;13.70;8.75;;;;;;;;;;5009385;28;20057;-56
2024/01/31 13:00:10;;;;;;;13.68;8.82;;;;;;;;;;5009484;28;20026;-56
2024/01/31 13:02:36;;;;;;;14.00;8.88;;;;;;;;;;5007768;28;20100;-55
2024/01/31 13:05:02;;;;;;;13.60;8.70;;;;;;;;;;5009078;28;20201;-55
2024/01/31 13:07:28;;;;;;;13.52;8.30;;;;;;;;;;5010050;28;20528;-53
2024/01/31 13:09:54;;;;;;;14.18;10.25;;;;;;;;;;5009052;28;20104;-56
2024/01/31 13:12:20;;;;;;;13.43;8.30;;;;;;;;;;5008186;28;20021;-56
2024/01/31 13:14:46;;;;;;;13.82;8.90;;;;;;;;;;5008607;28;20148;-55
2024/01/31 13:17:12;;;;;;;13.60;8.55;;;;;;;;;;5008806;28;20029;-57
2024/01/31 13:19:38;;;;;;;13.73;9.00;;;;;;;;;;5008884;28;20025;-56
2024/01/31 13:22:04;;;;;;;13.70;8.80;;;;;;;;;;5008372;28;20068;-55
2024/01/31 13:24:35;;;;;;;13.65;8.77;;;;;;;;;;5008692;28;20022;-53
2024/01/31 13:27:02;;;;;;;13.55;8.77;;;;;;;;;;5008910;28;20498;-55
2024/01/31 13:29:28;;;;;;;13.52;8.45;;;;;;;;;;5008776;28;20030;-55
2024/01/31 13:31:54;;;;;;;13.68;8.88;;;;;;;;;;5008057;28;20045;-55
2024/01/31 13:34:20;;;;;;;13.75;9.15;;;;;;;;;;5008557;28;20159;-54
2024/01/31 13:36:46;;;;;;;13.60;8.52;;;;;;;;;;5008505;28;20033;-55
2024/01/31 13:39:13;;;;;;;13.57;8.65;;;;;;;;;;5008643;28;20098;-53
2024/01/31 13:41:39;;;;;;;14.65;9.85;;;;;;;;;;5008055;28;20030;-57
2024/01/31 13:44:05;;;;;;;13.68;8.90;;;;;;;;;;4975215;28;20030;-54
2024/01/31 13:46:31;;;;;;;13.60;9.00;;;;;;;;;;5008919;28;20026;-50
2024/01/31 13:48:57;;;;;;;23.38;11.00;;;;;;;;;;5008891;28;20476;-52
2024/01/31 13:51:23;;;;;;;16.10;9.23;;;;;;;;;;5008405;28;20037;-53
2024/01/31 13:53:49;;;;;;;13.57;8.52;;;;;;;;;;5008844;28;20038;-51
2024/01/31 13:56:15;;;;;;;13.50;8.43;;;;;;;;;;5009217;28;20029;-53
2024/01/31 13:58:42;;;;;;;13.68;8.77;;;;;;;;;;5008861;28;20022;-52
2024/01/31 14:01:08;;;;;;;17.83;9.30;;;;;;;;;;5007944;28;20615;-52
2024/01/31 14:03:35;;;;;;;13.70;8.90;;;;;;;;;;5008262;28;20030;-55
2024/01/31 14:06:00;;;;;;;13.55;8.48;;;;;;;;;;5008827;28;20116;-57
2024/01/31 14:08:26;;;;;;;13.98;9.73;;;;;;;;;;5008601;28;20057;-50
2024/01/31 14:10:52;;;;;;;13.85;9.20;;;;;;;;;;5008552;28;20492;-56
2024/01/31 14:13:19;;;;;;;13.52;8.32;;;;;;;;;;5007763;28;20091;-57
2024/01/31 14:15:44;;;;;;;13.40;8.50;;;;;;;;;;4990812;28;20061;-55
2024/01/31 14:18:10;;;;;;;13.77;8.60;;;;;;;;;;5008454;28;20038;-58